sensor_id;sensor_type;location;lat;lon;timestamp;pressure;altitude;pressure_sealevel;temperature;humidity
53916;BME280;39827;49.652;18.770;2023-03-18T00:00:49;96620.50;;;1.93;58.25
53916;BME280;39827;49.652;18.770;2023-03-18T00:03:14;96635.22;;;2.28;60.77
53916;BME280;39827;49.652;18.770;2023-03-18T00:05:40;96620.31;;;2.15;61.88
53916;BME280;39827;49.652;18.770;2023-03-18T00:08:06;96618.88;;;1.85;63.21
53916;BME280;39827;49.652;18.770;2023-03-18T00:10:32;96628.50;;;1.85;61.74
53916;BME280;39827;49.652;18.770;2023-03-18T00:13:00;96626.34;;;2.08;58.68
53916;BME280;39827;49.652;18.770;2023-03-18T00:15:26;96630.94;;;2.00;63.30
53916;BME280;39827;49.652;18.770;2023-03-18T00:17:53;96627.09;;;1.89;58.79
53916;BME280;39827;49.652;18.770;2023-03-18T00:20:18;96627.56;;;2.13;57.83
53916;BME280;39827;49.652;18.770;2023-03-18T00:22:53;96619.25;;;1.82;63.04
53916;BME280;39827;49.652;18.770;2023-03-18T00:25:19;96625.66;;;1.66;60.01
53916;BME280;39827;49.652;18.770;2023-03-18T00:27:45;96617.69;;;2.01;56.76
53916;BME280;39827;49.652;18.770;2023-03-18T00:30:11;96635.16;;;1.94;62.31
53916;BME280;39827;49.652;18.770;2023-03-18T00:32:36;96632.31;;;1.75;61.42
53916;BME280;39827;49.652;18.770;2023-03-18T00:35:03;96627.75;;;2.04;62.02
53916;BME280;39827;49.652;18.770;2023-03-18T00:37:29;96621.63;;;1.63;60.09
53916;BME280;39827;49.652;18.770;2023-03-18T00:39:59;96625.31;;;1.96;58.63
53916;BME280;39827;49.652;18.770;2023-03-18T00:42:34;96623.72;;;1.95;61.02
53916;BME280;39827;49.652;18.770;2023-03-18T00:45:08;96617.25;;;1.77;59.38
53916;BME280;39827;49.652;18.770;2023-03-18T00:47:35;96616.47;;;1.90;60.77
53916;BME280;39827;49.652;18.770;2023-03-18T00:50:03;96609.00;;;1.74;64.27
53916;BME280;39827;49.652;18.770;2023-03-18T00:52:30;96605.72;;;1.45;63.65
53916;BME280;39827;49.652;18.770;2023-03-18T00:54:56;96614.13;;;1.40;62.66
53916;BME280;39827;49.652;18.770;2023-03-18T00:57:22;96608.94;;;1.47;62.39
53916;BME280;39827;49.652;18.770;2023-03-18T00:59:48;96599.72;;;1.58;63.80
53916;BME280;39827;49.652;18.770;2023-03-18T01:02:14;96600.50;;;1.38;62.10
53916;BME280;39827;49.652;18.770;2023-03-18T01:04:41;96596.91;;;1.46;64.48
53916;BME280;39827;49.652;18.770;2023-03-18T01:07:07;96600.63;;;1.23;66.25
53916;BME280;39827;49.652;18.770;2023-03-18T01:09:33;96602.84;;;1.26;64.68
53916;BME280;39827;49.652;18.770;2023-03-18T01:11:58;96598.25;;;1.35;62.87
53916;BME280;39827;49.652;18.770;2023-03-18T01:14:24;96601.22;;;1.25;63.45
53916;BME280;39827;49.652;18.770;2023-03-18T01:16:49;96595.81;;;1.26;63.27
53916;BME280;39827;49.652;18.770;2023-03-18T01:19:15;96586.66;;;1.44;63.13
53916;BME280;39827;49.652;18.770;2023-03-18T01:21:40;96585.59;;;1.25;62.65
53916;BME280;39827;49.652;18.770;2023-03-18T01:24:06;96583.63;;;1.34;64.84
53916;BME280;39827;49.652;18.770;2023-03-18T01:26:32;96579.91;;;1.08;65.42
53916;BME280;39827;49.652;18.770;2023-03-18T01:28:57;96573.84;;;1.00;65.31
53916;BME280;39827;49.652;18.770;2023-03-18T01:31:23;96578.13;;;1.15;62.86
53916;BME280;39827;49.652;18.770;2023-03-18T01:33:50;96575.78;;;0.85;66.04
53916;BME280;39827;49.652;18.770;2023-03-18T01:36:16;96576.06;;;1.03;66.87
53916;BME280;39827;49.652;18.770;2023-03-18T01:38:42;96572.34;;;0.77;68.00
53916;BME280;39827;49.652;18.770;2023-03-18T01:41:07;96570.13;;;0.74;67.51
53916;BME280;39827;49.652;18.770;2023-03-18T01:43:35;96574.91;;;0.71;68.63
53916;BME280;39827;49.652;18.770;2023-03-18T01:46:37;96569.34;;;0.81;67.40
53916;BME280;39827;49.652;18.770;2023-03-18T01:49:19;96563.69;;;0.70;66.09
53916;BME280;39827;49.652;18.770;2023-03-18T01:51:53;96573.13;;;0.78;68.42
53916;BME280;39827;49.652;18.770;2023-03-18T01:54:21;96555.38;;;0.53;69.58
53916;BME280;39827;49.652;18.770;2023-03-18T01:56:47;96561.81;;;0.57;68.71
53916;BME280;39827;49.652;18.770;2023-03-18T01:59:14;96567.59;;;0.52;69.63
53916;BME280;39827;49.652;18.770;2023-03-18T02:02:06;96572.28;;;0.64;70.74
53916;BME280;39827;49.652;18.770;2023-03-18T02:04:39;96549.53;;;0.22;70.29
53916;BME280;39827;49.652;18.770;2023-03-18T02:07:05;96553.31;;;0.48;66.94
53916;BME280;39827;49.652;18.770;2023-03-18T02:09:32;96557.53;;;0.49;70.85
53916;BME280;39827;49.652;18.770;2023-03-18T02:12:00;96564.66;;;0.34;71.66
53916;BME280;39827;49.652;18.770;2023-03-18T02:14:26;96565.41;;;0.28;71.50
53916;BME280;39827;49.652;18.770;2023-03-18T02:17:00;96566.00;;;0.23;67.85
53916;BME280;39827;49.652;18.770;2023-03-18T02:24:54;96558.22;;;0.30;69.37
53916;BME280;39827;49.652;18.770;2023-03-18T02:27:25;96550.94;;;0.54;67.33
53916;BME280;39827;49.652;18.770;2023-03-18T02:29:53;96551.72;;;0.47;71.62
53916;BME280;39827;49.652;18.770;2023-03-18T02:32:26;96549.09;;;0.12;70.23
53916;BME280;39827;49.652;18.770;2023-03-18T02:34:53;96546.84;;;0.37;67.03
53916;BME280;39827;49.652;18.770;2023-03-18T02:37:19;96541.41;;;0.68;65.44
53916;BME280;39827;49.652;18.770;2023-03-18T02:39:45;96544.63;;;0.70;63.74
53916;BME280;39827;49.652;18.770;2023-03-18T02:42:11;96550.97;;;1.02;65.86
53916;BME280;39827;49.652;18.770;2023-03-18T02:44:41;96545.72;;;0.89;63.85
53916;BME280;39827;49.652;18.770;2023-03-18T02:47:13;96555.72;;;1.41;64.76
53916;BME280;39827;49.652;18.770;2023-03-18T02:49:41;96548.22;;;1.11;64.93
53916;BME280;39827;49.652;18.770;2023-03-18T02:52:07;96558.22;;;1.00;62.45
53916;BME280;39827;49.652;18.770;2023-03-18T02:54:32;96556.69;;;1.26;61.66
53916;BME280;39827;49.652;18.770;2023-03-18T02:56:58;96553.91;;;1.35;62.73
53916;BME280;39827;49.652;18.770;2023-03-18T02:59:23;96547.41;;;1.03;65.57
53916;BME280;39827;49.652;18.770;2023-03-18T03:01:51;96555.34;;;0.88;63.71
53916;BME280;39827;49.652;18.770;2023-03-18T03:04:18;96556.16;;;0.96;60.47
53916;BME280;39827;49.652;18.770;2023-03-18T03:06:45;96557.75;;;1.39;60.71
53916;BME280;39827;49.652;18.770;2023-03-18T03:09:13;96565.06;;;1.15;64.36
53916;BME280;39827;49.652;18.770;2023-03-18T03:11:40;96558.44;;;1.12;58.15
53916;BME280;39827;49.652;18.770;2023-03-18T03:14:06;96559.38;;;0.91;66.27
53916;BME280;39827;49.652;18.770;2023-03-18T03:16:32;96558.34;;;0.85;61.60
53916;BME280;39827;49.652;18.770;2023-03-18T03:18:58;96553.22;;;1.12;58.99
53916;BME280;39827;49.652;18.770;2023-03-18T03:21:23;96552.63;;;1.03;62.83
53916;BME280;39827;49.652;18.770;2023-03-18T03:23:49;96558.00;;;0.95;59.27
53916;BME280;39827;49.652;18.770;2023-03-18T03:26:15;96573.53;;;1.24;64.31
53916;BME280;39827;49.652;18.770;2023-03-18T03:28:41;96565.28;;;0.71;66.20
53916;BME280;39827;49.652;18.770;2023-03-18T03:31:07;96562.50;;;0.44;66.41
53916;BME280;39827;49.652;18.770;2023-03-18T03:33:34;96576.44;;;0.58;65.01
53916;BME280;39827;49.652;18.770;2023-03-18T03:36:00;96577.34;;;0.72;62.06
53916;BME280;39827;49.652;18.770;2023-03-18T03:38:26;96575.38;;;0.88;66.10
53916;BME280;39827;49.652;18.770;2023-03-18T03:40:51;96572.72;;;0.39;65.82
53916;BME280;39827;49.652;18.770;2023-03-18T03:43:18;96579.97;;;0.79;63.43
53916;BME280;39827;49.652;18.770;2023-03-18T03:45:43;96571.63;;;0.62;65.32
53916;BME280;39827;49.652;18.770;2023-03-18T03:48:09;96578.34;;;0.78;62.16
53916;BME280;39827;49.652;18.770;2023-03-18T03:50:35;96574.50;;;0.74;66.14
53916;BME280;39827;49.652;18.770;2023-03-18T03:53:01;96570.91;;;0.68;64.94
53916;BME280;39827;49.652;18.770;2023-03-18T03:55:29;96578.50;;;0.70;63.08
53916;BME280;39827;49.652;18.770;2023-03-18T03:57:54;96573.50;;;0.68;65.51
53916;BME280;39827;49.652;18.770;2023-03-18T04:00:22;96568.81;;;0.57;62.97
53916;BME280;39827;49.652;18.770;2023-03-18T04:02:49;96565.97;;;0.51;67.45
53916;BME280;39827;49.652;18.770;2023-03-18T04:05:17;96570.09;;;0.39;66.25
53916;BME280;39827;49.652;18.770;2023-03-18T04:07:43;96564.44;;;0.64;64.28
53916;BME280;39827;49.652;18.770;2023-03-18T04:10:10;96552.13;;;0.51;64.14
53916;BME280;39827;49.652;18.770;2023-03-18T04:12:37;96550.94;;;0.54;63.05
53916;BME280;39827;49.652;18.770;2023-03-18T04:15:04;96566.75;;;0.52;66.47
53916;BME280;39827;49.652;18.770;2023-03-18T04:17:31;96558.75;;;0.54;64.33
53916;BME280;39827;49.652;18.770;2023-03-18T04:19:56;96563.47;;;0.72;65.05
53916;BME280;39827;49.652;18.770;2023-03-18T04:22:22;96562.25;;;0.32;67.63
53916;BME280;39827;49.652;18.770;2023-03-18T04:24:48;96571.00;;;0.24;66.30
53916;BME280;39827;49.652;18.770;2023-03-18T04:27:13;96560.06;;;0.36;65.10
53916;BME280;39827;49.652;18.770;2023-03-18T04:29:39;96558.44;;;0.63;66.00
53916;BME280;39827;49.652;18.770;2023-03-18T04:32:05;96546.56;;;0.25;66.68
53916;BME280;39827;49.652;18.770;2023-03-18T04:34:30;96550.72;;;0.48;64.78
53916;BME280;39827;49.652;18.770;2023-03-18T04:36:56;96552.38;;;0.56;66.84
53916;BME280;39827;49.652;18.770;2023-03-18T04:39:22;96550.56;;;0.57;66.73
53916;BME280;39827;49.652;18.770;2023-03-18T04:41:48;96562.22;;;0.61;65.99
53916;BME280;39827;49.652;18.770;2023-03-18T04:44:13;96554.00;;;0.57;66.58
53916;BME280;39827;49.652;18.770;2023-03-18T04:46:39;96553.13;;;0.50;63.15
53916;BME280;39827;49.652;18.770;2023-03-18T04:49:04;96563.22;;;0.60;66.27
53916;BME280;39827;49.652;18.770;2023-03-18T04:51:30;96555.19;;;0.55;67.10
53916;BME280;39827;49.652;18.770;2023-03-18T04:53:55;96567.06;;;0.64;66.65
53916;BME280;39827;49.652;18.770;2023-03-18T04:56:21;96560.44;;;0.61;65.89
53916;BME280;39827;49.652;18.770;2023-03-18T04:58:46;96559.16;;;0.50;64.04
53916;BME280;39827;49.652;18.770;2023-03-18T05:01:12;96564.81;;;0.61;67.14
53916;BME280;39827;49.652;18.770;2023-03-18T05:03:40;96552.72;;;0.46;64.76
53916;BME280;39827;49.652;18.770;2023-03-18T05:06:07;96561.81;;;0.57;65.78
53916;BME280;39827;49.652;18.770;2023-03-18T05:08:33;96565.00;;;0.59;65.05
53916;BME280;39827;49.652;18.770;2023-03-18T05:10:59;96572.13;;;0.72;66.25
53916;BME280;39827;49.652;18.770;2023-03-18T05:13:24;96554.88;;;0.78;62.27
53916;BME280;39827;49.652;18.770;2023-03-18T05:15:50;96567.50;;;1.23;62.13
53916;BME280;39827;49.652;18.770;2023-03-18T05:18:15;96577.50;;;1.06;62.30
53916;BME280;39827;49.652;18.770;2023-03-18T05:20:41;96566.63;;;1.02;62.72
53916;BME280;39827;49.652;18.770;2023-03-18T05:23:07;96573.75;;;1.22;62.14
53916;BME280;39827;49.652;18.770;2023-03-18T05:25:32;96570.34;;;1.35;59.12
53916;BME280;39827;49.652;18.770;2023-03-18T05:27:59;96577.31;;;2.04;56.32
53916;BME280;39827;49.652;18.770;2023-03-18T05:30:24;96573.69;;;2.59;51.28
53916;BME280;39827;49.652;18.770;2023-03-18T05:32:50;96577.88;;;2.73;56.74
53916;BME280;39827;49.652;18.770;2023-03-18T05:35:15;96588.94;;;2.55;54.76
53916;BME280;39827;49.652;18.770;2023-03-18T05:37:41;96573.78;;;2.91;49.37
53916;BME280;39827;49.652;18.770;2023-03-18T05:40:08;96578.38;;;3.09;53.51
53916;BME280;39827;49.652;18.770;2023-03-18T05:42:36;96566.88;;;3.10;49.50
53916;BME280;39827;49.652;18.770;2023-03-18T05:45:03;96577.06;;;3.71;47.85
53916;BME280;39827;49.652;18.770;2023-03-18T05:47:29;96585.13;;;4.02;46.73
53916;BME280;39827;49.652;18.770;2023-03-18T05:49:54;96579.88;;;4.27;44.89
53916;BME280;39827;49.652;18.770;2023-03-18T05:52:20;96581.31;;;4.30;45.44
53916;BME280;39827;49.652;18.770;2023-03-18T05:54:45;96585.94;;;4.28;45.24
53916;BME280;39827;49.652;18.770;2023-03-18T05:57:11;96601.09;;;4.70;45.46
53916;BME280;39827;49.652;18.770;2023-03-18T05:59:36;96598.06;;;4.73;44.57
53916;BME280;39827;49.652;18.770;2023-03-18T06:02:02;96601.78;;;4.84;43.70
53916;BME280;39827;49.652;18.770;2023-03-18T06:04:28;96600.97;;;4.83;43.59
53916;BME280;39827;49.652;18.770;2023-03-18T06:06:53;96597.25;;;4.73;42.21
53916;BME280;39827;49.652;18.770;2023-03-18T06:09:19;96599.91;;;4.91;46.92
53916;BME280;39827;49.652;18.770;2023-03-18T06:11:46;96602.28;;;4.93;42.12
53916;BME280;39827;49.652;18.770;2023-03-18T06:14:12;96595.13;;;5.19;41.71
53916;BME280;39827;49.652;18.770;2023-03-18T06:16:39;96598.31;;;5.09;42.38
53916;BME280;39827;49.652;18.770;2023-03-18T06:19:05;96567.50;;;5.35;40.71
53916;BME280;39827;49.652;18.770;2023-03-18T06:21:31;96596.25;;;5.60;40.05
53916;BME280;39827;49.652;18.770;2023-03-18T06:23:57;96611.22;;;5.60;41.00
53916;BME280;39827;49.652;18.770;2023-03-18T06:26:23;96598.66;;;5.62;39.75
53916;BME280;39827;49.652;18.770;2023-03-18T06:28:48;96612.91;;;5.85;40.04
53916;BME280;39827;49.652;18.770;2023-03-18T06:31:14;96601.50;;;6.82;37.80
53916;BME280;39827;49.652;18.770;2023-03-18T06:33:39;96601.19;;;8.01;36.18
53916;BME280;39827;49.652;18.770;2023-03-18T06:36:05;96620.31;;;8.26;35.20
53916;BME280;39827;49.652;18.770;2023-03-18T06:38:31;96616.06;;;8.59;34.07
53916;BME280;39827;49.652;18.770;2023-03-18T06:40:57;96620.31;;;8.77;34.08
53916;BME280;39827;49.652;18.770;2023-03-18T06:43:24;96617.78;;;9.49;34.13
53916;BME280;39827;49.652;18.770;2023-03-18T06:45:49;96622.53;;;9.25;32.83
53916;BME280;39827;49.652;18.770;2023-03-18T06:48:15;96624.13;;;9.04;33.59
53916;BME280;39827;49.652;18.770;2023-03-18T06:50:42;96618.03;;;9.70;32.12
53916;BME280;39827;49.652;18.770;2023-03-18T06:53:09;96641.03;;;9.25;32.15
53916;BME280;39827;49.652;18.770;2023-03-18T06:55:34;96624.53;;;9.18;32.41
53916;BME280;39827;49.652;18.770;2023-03-18T06:58:01;96629.72;;;9.52;32.13
53916;BME280;39827;49.652;18.770;2023-03-18T07:00:27;96638.66;;;10.28;31.81
53916;BME280;39827;49.652;18.770;2023-03-18T07:02:52;96633.66;;;10.32;30.82
53916;BME280;39827;49.652;18.770;2023-03-18T07:05:18;96642.03;;;9.91;31.41
53916;BME280;39827;49.652;18.770;2023-03-18T07:07:45;96658.53;;;10.03;31.35
53916;BME280;39827;49.652;18.770;2023-03-18T07:10:23;96641.50;;;10.82;30.32
53916;BME280;39827;49.652;18.770;2023-03-18T07:12:50;96654.34;;;11.59;29.23
53916;BME280;39827;49.652;18.770;2023-03-18T07:15:17;96655.97;;;11.71;28.77
53916;BME280;39827;49.652;18.770;2023-03-18T07:17:46;96641.97;;;11.86;28.07
53916;BME280;39827;49.652;18.770;2023-03-18T07:20:12;96652.41;;;12.60;28.11
53916;BME280;39827;49.652;18.770;2023-03-18T07:22:38;96646.56;;;12.17;27.78
53916;BME280;39827;49.652;18.770;2023-03-18T07:25:03;96647.38;;;12.28;26.93
53916;BME280;39827;49.652;18.770;2023-03-18T07:27:29;96651.63;;;12.49;27.85
53916;BME280;39827;49.652;18.770;2023-03-18T07:29:54;96657.19;;;12.89;27.32
53916;BME280;39827;49.652;18.770;2023-03-18T07:32:21;96648.19;;;12.49;26.49
53916;BME280;39827;49.652;18.770;2023-03-18T07:34:48;96650.00;;;13.00;26.51
53916;BME280;39827;49.652;18.770;2023-03-18T07:37:14;96655.75;;;13.28;25.73
53916;BME280;39827;49.652;18.770;2023-03-18T07:39:39;96653.13;;;13.23;25.80
53916;BME280;39827;49.652;18.770;2023-03-18T07:42:07;96652.69;;;12.90;27.15
53916;BME280;39827;49.652;18.770;2023-03-18T07:44:33;96642.03;;;12.85;25.66
53916;BME280;39827;49.652;18.770;2023-03-18T07:47:00;96658.25;;;12.47;25.69
53916;BME280;39827;49.652;18.770;2023-03-18T07:49:25;96645.25;;;12.71;25.92
53916;BME280;39827;49.652;18.770;2023-03-18T07:51:51;96664.63;;;12.82;26.06
53916;BME280;39827;49.652;18.770;2023-03-18T07:54:17;96664.69;;;11.56;27.05
53916;BME280;39827;49.652;18.770;2023-03-18T07:56:42;96658.41;;;11.93;26.78
53916;BME280;39827;49.652;18.770;2023-03-18T07:59:08;96654.81;;;12.20;26.90
53916;BME280;39827;49.652;18.770;2023-03-18T08:01:34;96656.84;;;11.97;26.37
53916;BME280;39827;49.652;18.770;2023-03-18T08:04:00;96669.66;;;12.21;26.80
53916;BME280;39827;49.652;18.770;2023-03-18T08:06:25;96657.47;;;12.83;26.40
53916;BME280;39827;49.652;18.770;2023-03-18T08:08:50;96657.19;;;12.89;26.38
53916;BME280;39827;49.652;18.770;2023-03-18T08:11:16;96665.16;;;12.27;26.23
53916;BME280;39827;49.652;18.770;2023-03-18T08:13:41;96660.09;;;12.93;26.56
53916;BME280;39827;49.652;18.770;2023-03-18T08:16:07;96672.59;;;12.82;25.67
53916;BME280;39827;49.652;18.770;2023-03-18T08:18:33;96660.91;;;12.73;26.23
53916;BME280;39827;49.652;18.770;2023-03-18T08:20:59;96673.34;;;13.14;25.69
53916;BME280;39827;49.652;18.770;2023-03-18T08:23:24;96658.38;;;13.44;26.26
53916;BME280;39827;49.652;18.770;2023-03-18T08:25:50;96658.22;;;13.04;26.12
53916;BME280;39827;49.652;18.770;2023-03-18T08:28:16;96665.69;;;12.97;25.85
53916;BME280;39827;49.652;18.770;2023-03-18T08:30:43;96654.84;;;12.46;26.71
53916;BME280;39827;49.652;18.770;2023-03-18T08:33:09;96671.81;;;12.50;27.04
53916;BME280;39827;49.652;18.770;2023-03-18T08:35:34;96665.88;;;11.96;26.86
53916;BME280;39827;49.652;18.770;2023-03-18T08:38:00;96682.28;;;11.83;27.20
53916;BME280;39827;49.652;18.770;2023-03-18T08:40:25;96654.91;;;11.08;28.07
53916;BME280;39827;49.652;18.770;2023-03-18T08:42:51;96668.84;;;12.16;27.23
53916;BME280;39827;49.652;18.770;2023-03-18T08:45:17;96673.91;;;13.87;25.96
53916;BME280;39827;49.652;18.770;2023-03-18T08:47:43;96669.00;;;14.50;24.47
53916;BME280;39827;49.652;18.770;2023-03-18T08:50:09;96668.72;;;14.92;24.86
53916;BME280;39827;49.652;18.770;2023-03-18T08:52:35;96666.97;;;15.31;24.03
53916;BME280;39827;49.652;18.770;2023-03-18T08:55:03;96676.53;;;15.61;23.15
53916;BME280;39827;49.652;18.770;2023-03-18T08:57:29;96674.25;;;16.51;23.33
53916;BME280;39827;49.652;18.770;2023-03-18T08:59:56;96676.66;;;15.95;22.68
53916;BME280;39827;49.652;18.770;2023-03-18T09:02:21;96667.50;;;15.57;22.55
53916;BME280;39827;49.652;18.770;2023-03-18T09:04:47;96658.63;;;16.06;22.22
53916;BME280;39827;49.652;18.770;2023-03-18T09:07:13;96657.19;;;17.69;21.62
53916;BME280;39827;49.652;18.770;2023-03-18T09:09:39;96664.47;;;17.27;21.75
53916;BME280;39827;49.652;18.770;2023-03-18T09:12:05;96648.44;;;16.27;21.38
53916;BME280;39827;49.652;18.770;2023-03-18T09:14:31;96650.59;;;16.44;20.95
53916;BME280;39827;49.652;18.770;2023-03-18T09:16:57;96646.25;;;16.82;21.47
53916;BME280;39827;49.652;18.770;2023-03-18T09:19:24;96647.59;;;16.65;20.35
53916;BME280;39827;49.652;18.770;2023-03-18T09:21:50;96647.59;;;17.68;20.09
53916;BME280;39827;49.652;18.770;2023-03-18T09:24:15;96649.56;;;18.51;20.21
53916;BME280;39827;49.652;18.770;2023-03-18T09:26:40;96642.00;;;16.94;20.04
53916;BME280;39827;49.652;18.770;2023-03-18T09:29:06;96632.53;;;16.36;21.54
53916;BME280;39827;49.652;18.770;2023-03-18T09:31:32;96657.13;;;16.19;21.62
53916;BME280;39827;49.652;18.770;2023-03-18T09:33:57;96638.56;;;17.08;21.42
53916;BME280;39827;49.652;18.770;2023-03-18T09:36:22;96623.44;;;17.17;20.83
53916;BME280;39827;49.652;18.770;2023-03-18T09:38:48;96626.72;;;16.14;21.33
53916;BME280;39827;49.652;18.770;2023-03-18T09:48:55;96635.72;;;15.36;21.01
53916;BME280;39827;49.652;18.770;2023-03-18T09:54:03;96636.41;;;17.38;21.08
53916;BME280;39827;49.652;18.770;2023-03-18T09:56:33;96637.78;;;17.22;20.01
53916;BME280;39827;49.652;18.770;2023-03-18T09:59:05;96627.16;;;17.02;19.61
53916;BME280;39827;49.652;18.770;2023-03-18T10:01:37;96634.53;;;17.25;20.00
53916;BME280;39827;49.652;18.770;2023-03-18T10:04:35;96599.53;;;16.46;21.02
53916;BME280;39827;49.652;18.770;2023-03-18T10:07:10;96618.69;;;16.34;20.16
53916;BME280;39827;49.652;18.770;2023-03-18T10:09:39;96597.22;;;15.43;20.98
53916;BME280;39827;49.652;18.770;2023-03-18T10:17:31;96627.72;;;16.85;19.71
53916;BME280;39827;49.652;18.770;2023-03-18T10:20:02;96613.63;;;17.13;17.82
53916;BME280;39827;49.652;18.770;2023-03-18T10:23:03;96616.16;;;17.04;17.84
53916;BME280;39827;49.652;18.770;2023-03-18T10:25:41;96620.50;;;15.81;18.52
53916;BME280;39827;49.652;18.770;2023-03-18T10:33:47;96642.97;;;15.74;18.96
53916;BME280;39827;49.652;18.770;2023-03-18T10:36:26;96622.69;;;16.17;18.73
53916;BME280;39827;49.652;18.770;2023-03-18T10:38:54;96615.66;;;16.40;18.08
53916;BME280;39827;49.652;18.770;2023-03-18T10:41:35;96611.09;;;16.41;18.81
53916;BME280;39827;49.652;18.770;2023-03-18T10:44:05;96621.69;;;16.46;18.50
53916;BME280;39827;49.652;18.770;2023-03-18T10:46:38;96635.13;;;15.64;19.14
53916;BME280;39827;49.652;18.770;2023-03-18T10:49:11;96647.31;;;14.67;20.26
53916;BME280;39827;49.652;18.770;2023-03-18T10:52:23;96633.66;;;15.28;19.81
53916;BME280;39827;49.652;18.770;2023-03-18T10:54:44;96620.84;;;15.06;19.46
53916;BME280;39827;49.652;18.770;2023-03-18T10:57:18;96623.22;;;15.56;19.46
53916;BME280;39827;49.652;18.770;2023-03-18T10:59:44;96609.56;;;15.58;19.64
53916;BME280;39827;49.652;18.770;2023-03-18T11:05:26;96621.38;;;16.81;18.34
53916;BME280;39827;49.652;18.770;2023-03-18T11:07:58;96604.47;;;16.86;19.17
53916;BME280;39827;49.652;18.770;2023-03-18T11:10:32;96609.25;;;16.56;18.49
53916;BME280;39827;49.652;18.770;2023-03-18T11:12:59;96604.59;;;17.09;18.69
53916;BME280;39827;49.652;18.770;2023-03-18T11:15:27;96600.91;;;16.43;19.02
53916;BME280;39827;49.652;18.770;2023-03-18T11:17:57;96602.31;;;17.44;19.01
53916;BME280;39827;49.652;18.770;2023-03-18T11:20:36;96617.09;;;17.13;20.09
53916;BME280;39827;49.652;18.770;2023-03-18T11:23:14;96608.69;;;16.73;18.73
53916;BME280;39827;49.652;18.770;2023-03-18T11:25:44;96613.53;;;17.32;18.25
53916;BME280;39827;49.652;18.770;2023-03-18T11:28:19;96601.00;;;15.80;19.36
53916;BME280;39827;49.652;18.770;2023-03-18T11:30:48;96610.34;;;16.02;19.22
53916;BME280;39827;49.652;18.770;2023-03-18T11:33:15;96596.38;;;17.19;18.60
53916;BME280;39827;49.652;18.770;2023-03-18T11:36:01;96600.41;;;17.02;18.29
53916;BME280;39827;49.652;18.770;2023-03-18T11:38:32;96615.16;;;18.07;18.65
53916;BME280;39827;49.652;18.770;2023-03-18T11:41:05;96595.09;;;17.30;18.72
53916;BME280;39827;49.652;18.770;2023-03-18T11:43:33;96618.19;;;16.12;18.81
53916;BME280;39827;49.652;18.770;2023-03-18T11:46:08;96586.47;;;17.05;19.02
53916;BME280;39827;49.652;18.770;2023-03-18T11:48:39;96597.53;;;16.99;18.62
53916;BME280;39827;49.652;18.770;2023-03-18T11:57:14;96580.19;;;17.38;18.90
53916;BME280;39827;49.652;18.770;2023-03-18T12:03:55;96606.84;;;18.77;17.11
53916;BME280;39827;49.652;18.770;2023-03-18T12:08:36;96594.34;;;20.33;17.31
53916;BME280;39827;49.652;18.770;2023-03-18T12:11:14;96576.28;;;18.32;16.77
53916;BME280;39827;49.652;18.770;2023-03-18T12:24:51;96582.88;;;17.89;16.96
53916;BME280;39827;49.652;18.770;2023-03-18T12:27:43;96571.34;;;17.52;17.50
53916;BME280;39827;49.652;18.770;2023-03-18T12:30:13;96567.81;;;17.79;18.00
53916;BME280;39827;49.652;18.770;2023-03-18T12:33:13;96589.50;;;17.55;17.57
53916;BME280;39827;49.652;18.770;2023-03-18T12:44:49;96569.47;;;17.66;17.64
53916;BME280;39827;49.652;18.770;2023-03-18T12:47:35;96575.69;;;16.63;17.50
53916;BME280;39827;49.652;18.770;2023-03-18T12:50:37;96571.47;;;15.96;18.78
53916;BME280;39827;49.652;18.770;2023-03-18T12:53:14;96576.66;;;16.39;18.47
53916;BME280;39827;49.652;18.770;2023-03-18T12:55:46;96571.81;;;17.17;18.31
53916;BME280;39827;49.652;18.770;2023-03-18T13:00:48;96566.56;;;17.63;17.53
53916;BME280;39827;49.652;18.770;2023-03-18T13:13:49;96572.63;;;16.70;19.43
53916;BME280;39827;49.652;18.770;2023-03-18T13:16:17;96568.25;;;17.08;18.54
53916;BME280;39827;49.652;18.770;2023-03-18T13:18:45;96603.25;;;16.78;17.62
53916;BME280;39827;49.652;18.770;2023-03-18T13:21:18;96557.72;;;16.83;19.02
53916;BME280;39827;49.652;18.770;2023-03-18T13:29:37;96554.03;;;16.18;18.11
53916;BME280;39827;49.652;18.770;2023-03-18T13:43:41;96556.78;;;15.93;20.55
53916;BME280;39827;49.652;18.770;2023-03-18T13:46:22;96538.38;;;16.11;20.86
53916;BME280;39827;49.652;18.770;2023-03-18T13:48:54;96548.88;;;15.25;19.04
53916;BME280;39827;49.652;18.770;2023-03-18T13:53:51;96546.00;;;14.97;20.72
53916;BME280;39827;49.652;18.770;2023-03-18T14:04:52;96541.69;;;16.22;20.60
53916;BME280;39827;49.652;18.770;2023-03-18T14:07:21;96532.69;;;16.32;19.17
53916;BME280;39827;49.652;18.770;2023-03-18T14:22:45;96544.81;;;15.52;20.04
53916;BME280;39827;49.652;18.770;2023-03-18T14:35:57;96534.38;;;15.12;20.55
53916;BME280;39827;49.652;18.770;2023-03-18T14:38:26;96526.81;;;14.70;19.97
53916;BME280;39827;49.652;18.770;2023-03-18T14:40:55;96522.72;;;14.24;20.60
53916;BME280;39827;49.652;18.770;2023-03-18T14:43:46;96528.41;;;14.42;20.69
53916;BME280;39827;49.652;18.770;2023-03-18T14:46:17;96524.94;;;14.71;20.43
53916;BME280;39827;49.652;18.770;2023-03-18T14:48:50;96532.16;;;14.41;20.63
53916;BME280;39827;49.652;18.770;2023-03-18T14:51:19;96537.00;;;14.33;21.12
53916;BME280;39827;49.652;18.770;2023-03-18T14:53:51;96532.53;;;13.94;21.34
53916;BME280;39827;49.652;18.770;2023-03-18T14:56:25;96534.47;;;13.88;21.47
53916;BME280;39827;49.652;18.770;2023-03-18T14:58:54;96521.00;;;13.74;23.30
53916;BME280;39827;49.652;18.770;2023-03-18T15:01:27;96525.50;;;13.74;23.60
53916;BME280;39827;49.652;18.770;2023-03-18T15:03:57;96526.00;;;13.81;23.73
53916;BME280;39827;49.652;18.770;2023-03-18T15:06:27;96542.34;;;14.04;22.93
53916;BME280;39827;49.652;18.770;2023-03-18T15:11:23;96521.47;;;13.81;24.96